Collegedale, Tennessee
Current Conditions -  °F | °C
As of 11:53 AM on Thursday 30 Oct 2014 (Local Time) from KCHA Reporting Station
Clear Clear  
Wind Chill: 60°   Ceiling: Unl
Heat Index: 60°   Visibility: 10mi
Dew Point: 40°   Wind: 6mph
Humidity: 47%   Direction: 40°NE
Pressure: 30.12"   Gusts: NA
Location:  35.06°N, 85.07°W
Report Text: KCHA 301553Z 04005KT 10SM CLR 16/04 A3012 RMK AO2 SLP199 T01560044
Loading
Personal Weather Stations






























Interactive Weather Map
Tropical Storm Tracking
New forecast layout! Learn more

10-Day Weather Forecast

Advertisements
Track Severe Weather on mobile